sensor_id;sensor_type;location;lat;lon;timestamp;temperature;humidity
15749;DHT22;7976;52.526;13.326;2023-05-10T00:01:32;13.70;97.40
15749;DHT22;7976;52.526;13.326;2023-05-10T00:03:58;13.70;97.50
15749;DHT22;7976;52.526;13.326;2023-05-10T00:06:25;13.60;97.60
15749;DHT22;7976;52.526;13.326;2023-05-10T00:08:53;13.60;97.60
15749;DHT22;7976;52.526;13.326;2023-05-10T00:11:20;13.60;97.70
15749;DHT22;7976;52.526;13.326;2023-05-10T00:13:46;13.50;98.10
15749;DHT22;7976;52.526;13.326;2023-05-10T00:16:13;13.50;97.90
15749;DHT22;7976;52.526;13.326;2023-05-10T00:18:41;13.50;97.90
15749;DHT22;7976;52.526;13.326;2023-05-10T00:21:08;13.50;98.00
15749;DHT22;7976;52.526;13.326;2023-05-10T00:23:35;13.40;98.10
15749;DHT22;7976;52.526;13.326;2023-05-10T00:26:02;13.40;98.20
15749;DHT22;7976;52.526;13.326;2023-05-10T00:28:29;13.40;98.30
15749;DHT22;7976;52.526;13.326;2023-05-10T00:30:56;13.30;98.40
15749;DHT22;7976;52.526;13.326;2023-05-10T00:33:23;13.30;98.40
15749;DHT22;7976;52.526;13.326;2023-05-10T00:35:51;13.30;98.40
15749;DHT22;7976;52.526;13.326;2023-05-10T00:38:17;13.30;98.50
15749;DHT22;7976;52.526;13.326;2023-05-10T00:40:44;13.30;98.60
15749;DHT22;7976;52.526;13.326;2023-05-10T00:43:19;13.20;98.60
15749;DHT22;7976;52.526;13.326;2023-05-10T00:45:46;13.20;98.70
15749;DHT22;7976;52.526;13.326;2023-05-10T00:48:13;13.20;98.80
15749;DHT22;7976;52.526;13.326;2023-05-10T00:50:40;13.20;98.90
15749;DHT22;7976;52.526;13.326;2023-05-10T00:53:09;13.10;99.00
15749;DHT22;7976;52.526;13.326;2023-05-10T00:55:37;13.10;99.10
15749;DHT22;7976;52.526;13.326;2023-05-10T00:58:04;13.10;99.20
15749;DHT22;7976;52.526;13.326;2023-05-10T01:00:32;13.00;99.30
15749;DHT22;7976;52.526;13.326;2023-05-10T01:03:00;13.00;99.40
15749;DHT22;7976;52.526;13.326;2023-05-10T01:05:27;13.00;99.50
15749;DHT22;7976;52.526;13.326;2023-05-10T01:07:53;12.90;99.60
15749;DHT22;7976;52.526;13.326;2023-05-10T01:10:22;12.90;99.70
15749;DHT22;7976;52.526;13.326;2023-05-10T01:12:49;12.80;99.80
15749;DHT22;7976;52.526;13.326;2023-05-10T01:15:17;12.80;99.90
15749;DHT22;7976;52.526;13.326;2023-05-10T01:17:47;12.80;99.90
15749;DHT22;7976;52.526;13.326;2023-05-10T01:20:15;12.70;99.90
15749;DHT22;7976;52.526;13.326;2023-05-10T01:26:14;12.70;99.90
15749;DHT22;7976;52.526;13.326;2023-05-10T01:29:13;12.60;99.90
15749;DHT22;7976;52.526;13.326;2023-05-10T01:32:15;12.60;99.90
15749;DHT22;7976;52.526;13.326;2023-05-10T01:34:53;12.60;99.90
15749;DHT22;7976;52.526;13.326;2023-05-10T01:37:31;12.60;99.90
15749;DHT22;7976;52.526;13.326;2023-05-10T01:40:13;12.60;99.90
15749;DHT22;7976;52.526;13.326;2023-05-10T01:42:49;12.50;99.90
15749;DHT22;7976;52.526;13.326;2023-05-10T01:45:24;12.50;99.90
15749;DHT22;7976;52.526;13.326;2023-05-10T01:48:05;12.50;99.90
15749;DHT22;7976;52.526;13.326;2023-05-10T01:50:35;12.40;99.90
15749;DHT22;7976;52.526;13.326;2023-05-10T01:53:07;12.40;99.90
15749;DHT22;7976;52.526;13.326;2023-05-10T01:55:39;12.40;99.90
15749;DHT22;7976;52.526;13.326;2023-05-10T01:58:13;12.30;99.90
15749;DHT22;7976;52.526;13.326;2023-05-10T02:00:43;12.30;99.90
15749;DHT22;7976;52.526;13.326;2023-05-10T02:03:15;12.20;99.90
15749;DHT22;7976;52.526;13.326;2023-05-10T02:05:46;12.20;99.90
15749;DHT22;7976;52.526;13.326;2023-05-10T02:08:16;12.20;99.90
15749;DHT22;7976;52.526;13.326;2023-05-10T02:10:45;12.20;99.90
15749;DHT22;7976;52.526;13.326;2023-05-10T02:13:15;12.10;99.90
15749;DHT22;7976;52.526;13.326;2023-05-10T02:15:43;12.10;99.90
15749;DHT22;7976;52.526;13.326;2023-05-10T02:18:15;12.10;99.90
15749;DHT22;7976;52.526;13.326;2023-05-10T02:20:45;12.00;99.90
15749;DHT22;7976;52.526;13.326;2023-05-10T02:23:17;12.00;99.90
15749;DHT22;7976;52.526;13.326;2023-05-10T02:25:45;12.00;99.90
15749;DHT22;7976;52.526;13.326;2023-05-10T02:28:14;12.00;99.90
15749;DHT22;7976;52.526;13.326;2023-05-10T02:30:43;11.90;99.90
15749;DHT22;7976;52.526;13.326;2023-05-10T02:33:11;11.90;99.90
15749;DHT22;7976;52.526;13.326;2023-05-10T02:35:40;11.90;99.90
15749;DHT22;7976;52.526;13.326;2023-05-10T02:38:08;11.90;99.90
15749;DHT22;7976;52.526;13.326;2023-05-10T02:40:38;11.90;99.90
15749;DHT22;7976;52.526;13.326;2023-05-10T02:43:10;11.80;99.90
15749;DHT22;7976;52.526;13.326;2023-05-10T02:45:40;11.80;99.90
15749;DHT22;7976;52.526;13.326;2023-05-10T02:48:09;11.80;99.90
15749;DHT22;7976;52.526;13.326;2023-05-10T02:50:37;11.80;99.90
15749;DHT22;7976;52.526;13.326;2023-05-10T02:53:13;11.80;99.90
15749;DHT22;7976;52.526;13.326;2023-05-10T02:55:50;11.80;99.90
15749;DHT22;7976;52.526;13.326;2023-05-10T02:58:18;11.70;99.90
15749;DHT22;7976;52.526;13.326;2023-05-10T03:00:46;11.70;99.90
15749;DHT22;7976;52.526;13.326;2023-05-10T03:03:13;11.70;99.90
15749;DHT22;7976;52.526;13.326;2023-05-10T03:05:41;11.60;99.90
15749;DHT22;7976;52.526;13.326;2023-05-10T03:08:08;11.60;99.90
15749;DHT22;7976;52.526;13.326;2023-05-10T03:10:45;11.60;99.90
15749;DHT22;7976;52.526;13.326;2023-05-10T03:13:29;11.60;99.90
15749;DHT22;7976;52.526;13.326;2023-05-10T03:16:07;11.60;99.90
15749;DHT22;7976;52.526;13.326;2023-05-10T03:18:42;11.50;99.90
15749;DHT22;7976;52.526;13.326;2023-05-10T03:21:18;11.50;99.90
15749;DHT22;7976;52.526;13.326;2023-05-10T03:23:51;11.50;99.90
15749;DHT22;7976;52.526;13.326;2023-05-10T03:26:26;11.50;99.90
15749;DHT22;7976;52.526;13.326;2023-05-10T03:29:05;11.50;99.90
15749;DHT22;7976;52.526;13.326;2023-05-10T03:31:33;11.50;99.90
15749;DHT22;7976;52.526;13.326;2023-05-10T03:34:00;11.40;99.90
15749;DHT22;7976;52.526;13.326;2023-05-10T03:36:28;11.40;99.90
15749;DHT22;7976;52.526;13.326;2023-05-10T03:38:55;11.40;99.90
15749;DHT22;7976;52.526;13.326;2023-05-10T03:41:22;11.40;99.90
15749;DHT22;7976;52.526;13.326;2023-05-10T03:43:48;11.40;99.90
15749;DHT22;7976;52.526;13.326;2023-05-10T03:46:15;11.40;99.90
15749;DHT22;7976;52.526;13.326;2023-05-10T03:48:42;11.40;99.90
15749;DHT22;7976;52.526;13.326;2023-05-10T03:51:09;11.40;99.90
15749;DHT22;7976;52.526;13.326;2023-05-10T03:53:38;11.30;99.90
15749;DHT22;7976;52.526;13.326;2023-05-10T03:56:05;11.40;99.90
15749;DHT22;7976;52.526;13.326;2023-05-10T03:58:32;11.30;99.90
15749;DHT22;7976;52.526;13.326;2023-05-10T04:00:59;11.30;99.90
15749;DHT22;7976;52.526;13.326;2023-05-10T04:03:26;11.40;99.90
15749;DHT22;7976;52.526;13.326;2023-05-10T04:05:59;11.40;99.90
15749;DHT22;7976;52.526;13.326;2023-05-10T04:08:26;11.40;99.90
15749;DHT22;7976;52.526;13.326;2023-05-10T04:11:00;11.40;99.90
15749;DHT22;7976;52.526;13.326;2023-05-10T04:13:31;11.40;99.90
15749;DHT22;7976;52.526;13.326;2023-05-10T04:15:58;11.40;99.90
15749;DHT22;7976;52.526;13.326;2023-05-10T04:18:25;11.50;99.90
15749;DHT22;7976;52.526;13.326;2023-05-10T04:20:51;11.50;99.90
15749;DHT22;7976;52.526;13.326;2023-05-10T04:23:18;11.50;99.90
15749;DHT22;7976;52.526;13.326;2023-05-10T04:25:45;11.50;99.90
15749;DHT22;7976;52.526;13.326;2023-05-10T04:28:13;11.60;99.90
15749;DHT22;7976;52.526;13.326;2023-05-10T04:30:40;11.60;99.90
15749;DHT22;7976;52.526;13.326;2023-05-10T04:33:06;11.60;99.90
15749;DHT22;7976;52.526;13.326;2023-05-10T04:35:34;11.60;99.90
15749;DHT22;7976;52.526;13.326;2023-05-10T04:38:01;11.60;99.90
15749;DHT22;7976;52.526;13.326;2023-05-10T04:40:27;11.70;99.90
15749;DHT22;7976;52.526;13.326;2023-05-10T04:42:54;11.70;99.90
15749;DHT22;7976;52.526;13.326;2023-05-10T04:45:22;11.80;99.90
15749;DHT22;7976;52.526;13.326;2023-05-10T04:47:49;11.80;99.90
15749;DHT22;7976;52.526;13.326;2023-05-10T04:50:16;11.80;99.90
15749;DHT22;7976;52.526;13.326;2023-05-10T04:52:43;11.90;99.90
15749;DHT22;7976;52.526;13.326;2023-05-10T04:55:10;12.00;99.90
15749;DHT22;7976;52.526;13.326;2023-05-10T04:57:37;12.00;99.90
15749;DHT22;7976;52.526;13.326;2023-05-10T05:00:04;12.00;99.90
15749;DHT22;7976;52.526;13.326;2023-05-10T05:02:33;12.10;99.90
15749;DHT22;7976;52.526;13.326;2023-05-10T05:05:00;12.20;99.90
15749;DHT22;7976;52.526;13.326;2023-05-10T05:07:27;12.20;99.90
15749;DHT22;7976;52.526;13.326;2023-05-10T05:09:54;12.30;99.90
15749;DHT22;7976;52.526;13.326;2023-05-10T05:12:20;12.40;99.90
15749;DHT22;7976;52.526;13.326;2023-05-10T05:14:47;12.40;99.90
15749;DHT22;7976;52.526;13.326;2023-05-10T05:17:14;12.50;99.90
15749;DHT22;7976;52.526;13.326;2023-05-10T05:19:42;12.60;99.90
15749;DHT22;7976;52.526;13.326;2023-05-10T05:22:09;12.60;99.90
15749;DHT22;7976;52.526;13.326;2023-05-10T05:24:36;12.60;99.90
15749;DHT22;7976;52.526;13.326;2023-05-10T05:27:03;12.70;99.90
15749;DHT22;7976;52.526;13.326;2023-05-10T05:29:31;12.80;99.90
15749;DHT22;7976;52.526;13.326;2023-05-10T05:31:57;12.90;99.90
15749;DHT22;7976;52.526;13.326;2023-05-10T05:34:24;12.90;99.90
15749;DHT22;7976;52.526;13.326;2023-05-10T05:36:52;13.00;99.90
15749;DHT22;7976;52.526;13.326;2023-05-10T05:39:19;13.10;99.90
15749;DHT22;7976;52.526;13.326;2023-05-10T05:41:46;13.10;99.90
15749;DHT22;7976;52.526;13.326;2023-05-10T05:44:13;13.20;99.90
15749;DHT22;7976;52.526;13.326;2023-05-10T05:46:40;13.30;99.90
15749;DHT22;7976;52.526;13.326;2023-05-10T05:49:06;13.40;99.90
15749;DHT22;7976;52.526;13.326;2023-05-10T05:51:33;13.50;99.90
15749;DHT22;7976;52.526;13.326;2023-05-10T05:54:02;13.50;99.90
15749;DHT22;7976;52.526;13.326;2023-05-10T05:56:29;13.60;99.90
15749;DHT22;7976;52.526;13.326;2023-05-10T05:58:56;13.70;99.90
15749;DHT22;7976;52.526;13.326;2023-05-10T06:01:23;13.80;99.90
15749;DHT22;7976;52.526;13.326;2023-05-10T06:03:50;13.90;99.90
15749;DHT22;7976;52.526;13.326;2023-05-10T06:06:16;13.90;99.90
15749;DHT22;7976;52.526;13.326;2023-05-10T06:08:43;14.00;99.90
15749;DHT22;7976;52.526;13.326;2023-05-10T06:11:11;14.10;99.90
15749;DHT22;7976;52.526;13.326;2023-05-10T06:13:38;14.20;99.90
15749;DHT22;7976;52.526;13.326;2023-05-10T06:16:05;14.20;99.90
15749;DHT22;7976;52.526;13.326;2023-05-10T06:18:32;14.20;99.90
15749;DHT22;7976;52.526;13.326;2023-05-10T06:21:00;14.30;99.90
15749;DHT22;7976;52.526;13.326;2023-05-10T06:23:26;14.30;99.90
15749;DHT22;7976;52.526;13.326;2023-05-10T06:25:54;14.40;99.90
15749;DHT22;7976;52.526;13.326;2023-05-10T06:28:22;14.50;99.90
15749;DHT22;7976;52.526;13.326;2023-05-10T06:30:49;14.60;99.90
15749;DHT22;7976;52.526;13.326;2023-05-10T06:33:15;14.80;99.90
15749;DHT22;7976;52.526;13.326;2023-05-10T06:35:42;15.10;99.90
15749;DHT22;7976;52.526;13.326;2023-05-10T06:38:09;15.20;99.90
15749;DHT22;7976;52.526;13.326;2023-05-10T06:40:36;15.40;99.90
15749;DHT22;7976;52.526;13.326;2023-05-10T06:43:03;15.50;99.90
15749;DHT22;7976;52.526;13.326;2023-05-10T06:45:32;15.60;99.90
15749;DHT22;7976;52.526;13.326;2023-05-10T06:47:59;15.60;99.90
15749;DHT22;7976;52.526;13.326;2023-05-10T06:50:26;15.60;99.90
15749;DHT22;7976;52.526;13.326;2023-05-10T06:52:53;15.70;99.90
15749;DHT22;7976;52.526;13.326;2023-05-10T06:55:20;15.80;99.90
15749;DHT22;7976;52.526;13.326;2023-05-10T06:57:47;15.80;99.90
15749;DHT22;7976;52.526;13.326;2023-05-10T07:00:15;15.90;99.90
15749;DHT22;7976;52.526;13.326;2023-05-10T07:02:43;15.90;99.90
15749;DHT22;7976;52.526;13.326;2023-05-10T07:05:10;16.00;99.90
15749;DHT22;7976;52.526;13.326;2023-05-10T07:07:38;16.10;99.90
15749;DHT22;7976;52.526;13.326;2023-05-10T07:10:05;16.20;99.90
15749;DHT22;7976;52.526;13.326;2023-05-10T07:12:33;16.30;99.90
15749;DHT22;7976;52.526;13.326;2023-05-10T07:15:00;16.40;99.90
15749;DHT22;7976;52.526;13.326;2023-05-10T07:17:26;16.40;99.90
15749;DHT22;7976;52.526;13.326;2023-05-10T07:19:54;16.50;99.90
15749;DHT22;7976;52.526;13.326;2023-05-10T07:22:21;16.60;99.90
15749;DHT22;7976;52.526;13.326;2023-05-10T07:24:48;16.70;99.90
15749;DHT22;7976;52.526;13.326;2023-05-10T07:27:15;16.70;99.90
15749;DHT22;7976;52.526;13.326;2023-05-10T07:29:42;16.80;99.90
15749;DHT22;7976;52.526;13.326;2023-05-10T07:32:08;16.80;99.90
15749;DHT22;7976;52.526;13.326;2023-05-10T07:34:35;16.90;99.90
15749;DHT22;7976;52.526;13.326;2023-05-10T07:37:03;17.00;99.90
15749;DHT22;7976;52.526;13.326;2023-05-10T07:39:31;17.10;99.90
15749;DHT22;7976;52.526;13.326;2023-05-10T07:41:58;17.20;99.80
15749;DHT22;7976;52.526;13.326;2023-05-10T07:44:25;17.20;99.70
15749;DHT22;7976;52.526;13.326;2023-05-10T07:46:52;17.30;99.60
15749;DHT22;7976;52.526;13.326;2023-05-10T07:49:18;17.40;99.60
15749;DHT22;7976;52.526;13.326;2023-05-10T07:51:45;17.50;99.50
15749;DHT22;7976;52.526;13.326;2023-05-10T07:54:14;17.60;99.30
15749;DHT22;7976;52.526;13.326;2023-05-10T07:56:41;17.70;99.40
15749;DHT22;7976;52.526;13.326;2023-05-10T07:59:14;17.80;99.20
15749;DHT22;7976;52.526;13.326;2023-05-10T08:01:43;17.90;98.90
15749;DHT22;7976;52.526;13.326;2023-05-10T08:04:10;17.90;98.90
15749;DHT22;7976;52.526;13.326;2023-05-10T08:06:37;18.10;98.90
15749;DHT22;7976;52.526;13.326;2023-05-10T08:09:04;18.20;98.60
15749;DHT22;7976;52.526;13.326;2023-05-10T08:11:33;18.20;98.20
15749;DHT22;7976;52.526;13.326;2023-05-10T08:13:59;18.30;98.10
15749;DHT22;7976;52.526;13.326;2023-05-10T08:16:26;18.30;98.10
15749;DHT22;7976;52.526;13.326;2023-05-10T08:19:02;18.40;97.90
15749;DHT22;7976;52.526;13.326;2023-05-10T08:21:29;18.40;98.00
15749;DHT22;7976;52.526;13.326;2023-05-10T08:23:57;18.50;97.90
15749;DHT22;7976;52.526;13.326;2023-05-10T08:26:24;18.70;97.70
15749;DHT22;7976;52.526;13.326;2023-05-10T08:28:52;18.80;97.60
15749;DHT22;7976;52.526;13.326;2023-05-10T08:31:19;18.90;97.60
15749;DHT22;7976;52.526;13.326;2023-05-10T08:33:46;18.90;97.50
15749;DHT22;7976;52.526;13.326;2023-05-10T08:36:13;19.00;97.20
15749;DHT22;7976;52.526;13.326;2023-05-10T08:38:45;19.00;96.90
15749;DHT22;7976;52.526;13.326;2023-05-10T08:41:12;18.90;96.90
15749;DHT22;7976;52.526;13.326;2023-05-10T08:43:40;18.90;97.00
15749;DHT22;7976;52.526;13.326;2023-05-10T08:46:15;18.90;96.90
15749;DHT22;7976;52.526;13.326;2023-05-10T08:48:44;19.00;97.10
15749;DHT22;7976;52.526;13.326;2023-05-10T08:51:13;19.10;97.10
15749;DHT22;7976;52.526;13.326;2023-05-10T08:53:41;19.20;97.20
15749;DHT22;7976;52.526;13.326;2023-05-10T08:56:08;19.30;96.80
15749;DHT22;7976;52.526;13.326;2023-05-10T08:58:36;19.40;96.40
15749;DHT22;7976;52.526;13.326;2023-05-10T09:01:03;19.50;96.70
15749;DHT22;7976;52.526;13.326;2023-05-10T09:03:32;19.60;96.50
15749;DHT22;7976;52.526;13.326;2023-05-10T09:06:00;19.60;96.40
15749;DHT22;7976;52.526;13.326;2023-05-10T09:08:26;19.70;96.40
15749;DHT22;7976;52.526;13.326;2023-05-10T09:10:54;19.80;96.40
15749;DHT22;7976;52.526;13.326;2023-05-10T09:13:23;19.80;96.30
15749;DHT22;7976;52.526;13.326;2023-05-10T09:15:51;19.90;96.10
15749;DHT22;7976;52.526;13.326;2023-05-10T09:18:19;19.90;95.90
15749;DHT22;7976;52.526;13.326;2023-05-10T09:20:48;20.00;95.90
15749;DHT22;7976;52.526;13.326;2023-05-10T09:23:15;20.00;96.00
15749;DHT22;7976;52.526;13.326;2023-05-10T09:25:42;20.00;96.00
15749;DHT22;7976;52.526;13.326;2023-05-10T09:28:09;20.10;95.70
15749;DHT22;7976;52.526;13.326;2023-05-10T09:30:36;20.10;95.50
15749;DHT22;7976;52.526;13.326;2023-05-10T09:33:04;20.20;95.30
15749;DHT22;7976;52.526;13.326;2023-05-10T09:35:32;20.20;95.50
15749;DHT22;7976;52.526;13.326;2023-05-10T09:38:02;20.30;95.50
15749;DHT22;7976;52.526;13.326;2023-05-10T09:40:31;20.50;95.50
15749;DHT22;7976;52.526;13.326;2023-05-10T09:42:59;20.60;95.30
15749;DHT22;7976;52.526;13.326;2023-05-10T09:45:28;20.60;95.20
15749;DHT22;7976;52.526;13.326;2023-05-10T09:48:00;20.70;95.20
15749;DHT22;7976;52.526;13.326;2023-05-10T09:50:30;20.80;95.20
15749;DHT22;7976;52.526;13.326;2023-05-10T09:52:58;20.80;94.70
15749;DHT22;7976;52.526;13.326;2023-05-10T09:55:39;20.80;94.70
15749;DHT22;7976;52.526;13.326;2023-05-10T09:58:08;20.80;94.80
15749;DHT22;7976;52.526;13.326;2023-05-10T10:00:37;20.90;94.90
15749;DHT22;7976;52.526;13.326;2023-05-10T10:03:05;20.90;94.90
15749;DHT22;7976;52.526;13.326;2023-05-10T10:05:34;21.10;94.90
15749;DHT22;7976;52.526;13.326;2023-05-10T10:08:03;21.20;95.00
15749;DHT22;7976;52.526;13.326;2023-05-10T10:10:33;21.30;94.80
15749;DHT22;7976;52.526;13.326;2023-05-10T10:13:00;21.40;94.50
15749;DHT22;7976;52.526;13.326;2023-05-10T10:15:28;21.40;94.40
15749;DHT22;7976;52.526;13.326;2023-05-10T10:17:55;21.40;94.40
15749;DHT22;7976;52.526;13.326;2023-05-10T10:20:22;21.50;94.40
15749;DHT22;7976;52.526;13.326;2023-05-10T10:22:50;21.60;93.80
15749;DHT22;7976;52.526;13.326;2023-05-10T10:25:19;21.60;93.40
15749;DHT22;7976;52.526;13.326;2023-05-10T10:28:01;21.50;93.80
15749;DHT22;7976;52.526;13.326;2023-05-10T10:30:50;21.60;93.40
15749;DHT22;7976;52.526;13.326;2023-05-10T10:33:36;21.60;93.40
15749;DHT22;7976;52.526;13.326;2023-05-10T10:36:12;21.50;93.50
15749;DHT22;7976;52.526;13.326;2023-05-10T10:38:59;21.50;93.70
15749;DHT22;7976;52.526;13.326;2023-05-10T10:41:28;21.60;93.60
15749;DHT22;7976;52.526;13.326;2023-05-10T10:44:32;21.70;93.50
15749;DHT22;7976;52.526;13.326;2023-05-10T10:47:02;21.80;93.30
15749;DHT22;7976;52.526;13.326;2023-05-10T10:49:37;21.90;93.50
15749;DHT22;7976;52.526;13.326;2023-05-10T10:52:20;22.00;93.60
15749;DHT22;7976;52.526;13.326;2023-05-10T10:54:53;22.10;93.30
15749;DHT22;7976;52.526;13.326;2023-05-10T10:57:24;22.10;92.80
15749;DHT22;7976;52.526;13.326;2023-05-10T11:00:18;22.20;92.60
15749;DHT22;7976;52.526;13.326;2023-05-10T11:02:56;22.10;92.80
15749;DHT22;7976;52.526;13.326;2023-05-10T11:05:36;22.20;92.80
15749;DHT22;7976;52.526;13.326;2023-05-10T11:08:12;22.20;92.60
15749;DHT22;7976;52.526;13.326;2023-05-10T11:10:50;22.30;92.10
15749;DHT22;7976;52.526;13.326;2023-05-10T11:13:27;22.40;91.80
15749;DHT22;7976;52.526;13.326;2023-05-10T11:15:57;22.40;91.80
15749;DHT22;7976;52.526;13.326;2023-05-10T11:18:37;22.40;91.50
15749;DHT22;7976;52.526;13.326;2023-05-10T11:21:04;22.40;91.50
15749;DHT22;7976;52.526;13.326;2023-05-10T11:23:32;22.40;91.60
15749;DHT22;7976;52.526;13.326;2023-05-10T11:26:13;22.40;91.50
15749;DHT22;7976;52.526;13.326;2023-05-10T11:28:41;22.50;91.50
15749;DHT22;7976;52.526;13.326;2023-05-10T11:31:10;22.60;91.40
15749;DHT22;7976;52.526;13.326;2023-05-10T11:33:42;22.60;91.50
15749;DHT22;7976;52.526;13.326;2023-05-10T11:36:11;22.60;91.50
15749;DHT22;7976;52.526;13.326;2023-05-10T11:38:38;22.60;91.70
15749;DHT22;7976;52.526;13.326;2023-05-10T11:41:05;22.60;91.30
15749;DHT22;7976;52.526;13.326;2023-05-10T11:43:34;22.60;91.10
15749;DHT22;7976;52.526;13.326;2023-05-10T11:46:02;22.60;91.00
15749;DHT22;7976;52.526;13.326;2023-05-10T11:48:30;22.70;91.10
15749;DHT22;7976;52.526;13.326;2023-05-10T11:50:58;22.80;91.20
15749;DHT22;7976;52.526;13.326;2023-05-10T11:53:26;22.80;91.00
15749;DHT22;7976;52.526;13.326;2023-05-10T11:55:53;22.80;90.60
15749;DHT22;7976;52.526;13.326;2023-05-10T11:58:20;22.80;90.20
15749;DHT22;7976;52.526;13.326;2023-05-10T12:00:48;22.80;89.80
15749;DHT22;7976;52.526;13.326;2023-05-10T12:03:17;22.80;90.00
15749;DHT22;7976;52.526;13.326;2023-05-10T12:05:45;22.90;90.10
15749;DHT22;7976;52.526;13.326;2023-05-10T12:08:13;23.00;89.80
15749;DHT22;7976;52.526;13.326;2023-05-10T12:10:41;23.00;89.70
15749;DHT22;7976;52.526;13.326;2023-05-10T12:13:11;23.10;89.70
15749;DHT22;7976;52.526;13.326;2023-05-10T12:15:39;23.10;89.20
15749;DHT22;7976;52.526;13.326;2023-05-10T12:18:08;23.10;89.10
15749;DHT22;7976;52.526;13.326;2023-05-10T12:20:36;23.10;89.20
15749;DHT22;7976;52.526;13.326;2023-05-10T12:23:05;23.00;88.90
15749;DHT22;7976;52.526;13.326;2023-05-10T12:25:33;23.10;88.50
15749;DHT22;7976;52.526;13.326;2023-05-10T12:28:03;23.10;88.20
15749;DHT22;7976;52.526;13.326;2023-05-10T12:30:33;23.20;88.50
15749;DHT22;7976;52.526;13.326;2023-05-10T12:33:03;23.30;89.30
15749;DHT22;7976;52.526;13.326;2023-05-10T12:35:44;23.30;89.10
15749;DHT22;7976;52.526;13.326;2023-05-10T12:38:26;23.30;88.30
15749;DHT22;7976;52.526;13.326;2023-05-10T12:40:56;23.40;87.70
15749;DHT22;7976;52.526;13.326;2023-05-10T12:43:24;23.30;87.80
15749;DHT22;7976;52.526;13.326;2023-05-10T12:45:51;23.30;88.10
15749;DHT22;7976;52.526;13.326;2023-05-10T12:48:17;23.40;88.50
15749;DHT22;7976;52.526;13.326;2023-05-10T12:50:45;23.40;87.80
15749;DHT22;7976;52.526;13.326;2023-05-10T12:53:13;23.40;88.30
15749;DHT22;7976;52.526;13.326;2023-05-10T12:55:43;23.40;88.80
15749;DHT22;7976;52.526;13.326;2023-05-10T12:58:10;23.40;88.70
15749;DHT22;7976;52.526;13.326;2023-05-10T13:00:37;23.30;89.00
15749;DHT22;7976;52.526;13.326;2023-05-10T13:03:04;23.40;89.40
15749;DHT22;7976;52.526;13.326;2023-05-10T13:05:31;23.40;89.50
15749;DHT22;7976;52.526;13.326;2023-05-10T13:07:58;23.50;89.50
15749;DHT22;7976;52.526;13.326;2023-05-10T13:10:25;23.50;89.40
15749;DHT22;7976;52.526;13.326;2023-05-10T13:12:54;23.60;88.90
15749;DHT22;7976;52.526;13.326;2023-05-10T13:15:21;23.60;88.40
15749;DHT22;7976;52.526;13.326;2023-05-10T13:17:47;23.60;87.10
15749;DHT22;7976;52.526;13.326;2023-05-10T13:20:15;23.60;86.70
15749;DHT22;7976;52.526;13.326;2023-05-10T13:22:42;23.60;87.00
15749;DHT22;7976;52.526;13.326;2023-05-10T13:25:10;23.60;87.20
15749;DHT22;7976;52.526;13.326;2023-05-10T13:27:37;23.50;87.70
15749;DHT22;7976;52.526;13.326;2023-05-10T13:30:06;23.40;88.00
15749;DHT22;7976;52.526;13.326;2023-05-10T13:32:34;23.50;88.30
15749;DHT22;7976;52.526;13.326;2023-05-10T13:35:02;23.60;88.40
15749;DHT22;7976;52.526;13.326;2023-05-10T13:37:29;23.70;88.10
15749;DHT22;7976;52.526;13.326;2023-05-10T13:39:56;23.70;87.80
15749;DHT22;7976;52.526;13.326;2023-05-10T13:42:24;23.90;87.40
15749;DHT22;7976;52.526;13.326;2023-05-10T13:44:50;24.00;87.70
15749;DHT22;7976;52.526;13.326;2023-05-10T13:47:19;24.10;86.60
15749;DHT22;7976;52.526;13.326;2023-05-10T13:49:47;24.10;85.70
15749;DHT22;7976;52.526;13.326;2023-05-10T13:52:13;24.20;84.80
15749;DHT22;7976;52.526;13.326;2023-05-10T13:54:40;24.20;84.00
15749;DHT22;7976;52.526;13.326;2023-05-10T13:57:07;24.20;83.90
15749;DHT22;7976;52.526;13.326;2023-05-10T13:59:34;24.10;83.60
15749;DHT22;7976;52.526;13.326;2023-05-10T14:02:01;24.10;84.80
15749;DHT22;7976;52.526;13.326;2023-05-10T14:04:29;24.00;84.60
15749;DHT22;7976;52.526;13.326;2023-05-10T14:06:57;23.90;85.00
15749;DHT22;7976;52.526;13.326;2023-05-10T14:09:24;23.80;85.10
15749;DHT22;7976;52.526;13.326;2023-05-10T14:11:50;23.70;85.10
15749;DHT22;7976;52.526;13.326;2023-05-10T14:14:17;23.70;85.20
15749;DHT22;7976;52.526;13.326;2023-05-10T14:16:44;23.70;85.00
15749;DHT22;7976;52.526;13.326;2023-05-10T14:19:11;23.60;84.60
15749;DHT22;7976;52.526;13.326;2023-05-10T14:21:40;23.50;83.80
15749;DHT22;7976;52.526;13.326;2023-05-10T14:24:08;23.50;83.70
15749;DHT22;7976;52.526;13.326;2023-05-10T14:26:35;23.50;83.50
15749;DHT22;7976;52.526;13.326;2023-05-10T14:29:02;23.50;83.80
15749;DHT22;7976;52.526;13.326;2023-05-10T14:31:29;23.60;84.00
15749;DHT22;7976;52.526;13.326;2023-05-10T14:33:56;23.60;83.60
15749;DHT22;7976;52.526;13.326;2023-05-10T14:36:24;23.70;83.30
15749;DHT22;7976;52.526;13.326;2023-05-10T14:38:52;23.70;83.20
15749;DHT22;7976;52.526;13.326;2023-05-10T14:41:19;23.70;83.20
15749;DHT22;7976;52.526;13.326;2023-05-10T14:43:46;23.70;82.40
15749;DHT22;7976;52.526;13.326;2023-05-10T14:46:13;23.70;82.40
15749;DHT22;7976;52.526;13.326;2023-05-10T14:48:40;23.70;82.20
15749;DHT22;7976;52.526;13.326;2023-05-10T14:51:07;23.70;82.50
15749;DHT22;7976;52.526;13.326;2023-05-10T14:53:34;23.80;82.70
15749;DHT22;7976;52.526;13.326;2023-05-10T14:56:02;23.90;82.90
15749;DHT22;7976;52.526;13.326;2023-05-10T14:58:29;23.90;82.80
15749;DHT22;7976;52.526;13.326;2023-05-10T15:00:56;23.80;82.70
15749;DHT22;7976;52.526;13.326;2023-05-10T15:03:23;23.90;83.00
15749;DHT22;7976;52.526;13.326;2023-05-10T15:05:53;23.80;83.10
15749;DHT22;7976;52.526;13.326;2023-05-10T15:08:21;23.90;83.30
15749;DHT22;7976;52.526;13.326;2023-05-10T15:10:49;23.90;83.40
15749;DHT22;7976;52.526;13.326;2023-05-10T15:13:17;23.70;83.00
15749;DHT22;7976;52.526;13.326;2023-05-10T15:15:44;23.50;82.80
15749;DHT22;7976;52.526;13.326;2023-05-10T15:18:11;23.40;83.20
15749;DHT22;7976;52.526;13.326;2023-05-10T15:20:38;23.30;83.40
15749;DHT22;7976;52.526;13.326;2023-05-10T15:23:05;23.30;83.60
15749;DHT22;7976;52.526;13.326;2023-05-10T15:25:31;23.20;83.90
15749;DHT22;7976;52.526;13.326;2023-05-10T15:28:00;23.20;84.00
15749;DHT22;7976;52.526;13.326;2023-05-10T15:30:29;23.30;84.30
15749;DHT22;7976;52.526;13.326;2023-05-10T15:32:56;23.40;84.00
15749;DHT22;7976;52.526;13.326;2023-05-10T15:35:22;23.40;83.80
15749;DHT22;7976;52.526;13.326;2023-05-10T15:37:49;23.40;83.90
15749;DHT22;7976;52.526;13.326;2023-05-10T15:40:16;23.40;83.80
15749;DHT22;7976;52.526;13.326;2023-05-10T15:42:43;23.40;83.90
15749;DHT22;7976;52.526;13.326;2023-05-10T15:45:10;23.40;83.90